Terminal Aerodrome Forecast
Issued by NWS Cleveland, OH

Home | Current Version | Previous Version | Graphics & Text | Print | Product List | Glossary Off
Versions: 1 2 3 4 5 6 7 8 9 10 11 12 13 14

000
FTUS41 KCLE 251737
TAFERI
TAF
KERI 251737Z 2518/2618 08006KT P6SM BKN090
     FM260100 12005KT P6SM BKN040
     FM260900 VRB03KT P6SM BKN014
     FM261400 06004KT P6SM SCT040=

USA.gov is the U.S. government's official web portal to all federal, state and local government web resources and services.